| time (UTC) | temp C | wind direction | speed KPH | gust KPH | rain 1hr cm | rain 24hr cm | rain mn cm | humidity % | barometer mb |
| 20260508010051 | 14 | 0 | 0.0 | 0.0 | 0.00 | 0.05 | 0.03 | 63 | 1015.7 |
| 20260508004547 | 14 | 0 | 0.0 | 0.0 | 0.00 | 0.05 | 0.03 | 62 | 1015.6 |
| 20260508003052 | 15 | 0 | 0.0 | 0.0 | 0.00 | 0.05 | 0.03 | 61 | 1015.5 |
| 20260508001556 | 15 | 0 | 0.0 | 0.0 | 0.00 | 0.05 | 0.03 | 60 | 1015.3 |
| 20260508000050 | 16 | 0 | 0.0 | 4.8 | 0.00 | 0.05 | 0.03 | 57 | 1015.1 |
| 20260507234546 | 16 | 0 | 0.0 | 4.8 | 0.00 | 0.08 | 0.03 | 58 | 1014.9 |
| 20260507233046 | 16 | 0 | 0.0 | 1.6 | 0.00 | 0.08 | 0.03 | 56 | 1014.7 |
| 20260507231548 | 17 | 319 | 0.0 | 6.4 | 0.00 | 0.08 | 0.03 | 56 | 1014.9 |
| 20260507230047 | 17 | 0 | 0.0 | 11.3 | 0.00 | 0.08 | 0.03 | 55 | 1014.9 |
| 20260507224549 | 17 | 0 | 0.0 | 8.0 | 0.00 | 0.08 | 0.03 | 56 | 1015.0 |
| 20260507223046 | 17 | 305 | 0.0 | 8.0 | 0.00 | 0.08 | 0.03 | 56 | 1015.0 |
| 20260507221545 | 17 | 284 | 1.6 | 9.7 | 0.00 | 0.08 | 0.03 | 55 | 1015.0 |
| 20260507220046 | 18 | 0 | 0.0 | 11.3 | 0.00 | 0.08 | 0.03 | 57 | 1015.0 |
| 20260507214549 | 18 | 0 | 3.2 | 14.5 | 0.00 | 0.08 | 0.03 | 53 | 1014.9 |
| 20260507213047 | 18 | 0 | 1.6 | 4.8 | 0.00 | 0.08 | 0.03 | 53 | 1014.9 |
| 20260507211553 | 18 | 315 | 3.2 | 12.9 | 0.00 | 0.08 | 0.03 | 55 | 1014.6 |
| 20260507210052 | 18 | 277 | 4.8 | 12.9 | 0.00 | 0.08 | 0.03 | 56 | 1014.5 |
| 20260507204549 | 18 | 238 | 4.8 | 11.3 | 0.00 | 0.08 | 0.03 | 55 | 1014.6 |
| 20260507203058 | 18 | 360 | 1.6 | 12.9 | 0.00 | 0.08 | 0.03 | 57 | 1014.6 |
| 20260507201551 | 17 | 305 | 3.2 | 12.9 | 0.00 | 0.08 | 0.03 | 56 | 1014.6 |
| 20260507200050 | 17 | 336 | 3.2 | 8.0 | 0.00 | 0.08 | 0.03 | 59 | 1014.6 |
| 20260507194548 | 17 | 360 | 3.2 | 14.5 | 0.00 | 0.08 | 0.03 | 58 | 1014.8 |
| 20260507193052 | 17 | 294 | 1.6 | 11.3 | 0.00 | 0.08 | 0.03 | 62 | 1014.7 |
| 20260507191553 | 17 | 13 | 3.2 | 12.9 | 0.00 | 0.08 | 0.03 | 60 | 1014.9 |
| 20260507190048 | 17 | 52 | 3.2 | 8.0 | 0.00 | 0.08 | 0.03 | 63 | 1015.0 |
| 20260507184546 | 17 | 263 | 1.6 | 9.7 | 0.00 | 0.08 | 0.03 | 65 | 1015.0 |
| 20260507183052 | 16 | 0 | 1.6 | 6.4 | 0.00 | 0.08 | 0.03 | 66 | 1015.1 |
| 20260507181553 | 16 | 283 | 3.2 | 12.9 | 0.00 | 0.08 | 0.03 | 65 | 1015.4 |
| 20260507180059 | 16 | 348 | 3.2 | 9.7 | 0.00 | 0.08 | 0.03 | 65 | 1015.5 |
| 20260507174602 | 16 | 351 | 1.6 | 14.5 | 0.00 | 0.08 | 0.03 | 68 | 1015.4 |
| 20260507173049 | 16 | 9 | 0.0 | 6.4 | 0.00 | 0.08 | 0.03 | 65 | 1015.5 |
| 20260507171603 | 16 | 0 | 3.2 | 8.0 | 0.00 | 0.08 | 0.03 | 63 | 1015.4 |
| 20260507170048 | 15 | 0 | 1.6 | 9.7 | 0.00 | 0.08 | 0.03 | 70 | 1015.1 |
| 20260507164549 | 16 | 0 | 1.6 | 12.9 | 0.00 | 0.10 | 0.03 | 70 | 1015.8 |
| 20260507163050 | 16 | 340 | 4.8 | 14.5 | 0.00 | 0.10 | 0.03 | 65 | 1015.7 |
| 20260507161556 | 16 | 73 | 3.2 | 14.5 | 0.00 | 0.10 | 0.03 | 66 | 1015.7 |
| 20260507160053 | 15 | 191 | 1.6 | 8.0 | 0.03 | 0.10 | 0.03 | 70 | 1016.0 |
| 20260507154545 | 14 | 337 | 3.2 | 9.7 | 0.03 | 0.13 | 0.03 | 72 | 1016.0 |
| 20260507153053 | 15 | 42 | 1.6 | 11.3 | 0.03 | 0.13 | 0.03 | 73 | 1015.9 |
| 20260507151549 | 15 | 0 | 1.6 | 6.4 | 0.03 | 0.13 | 0.03 | 75 | 1015.8 |
| 20260507150047 | 13 | 63 | 3.2 | 9.7 | 0.00 | 0.10 | 0.00 | 78 | 1015.8 |
| 20260507144546 | 13 | 87 | 0.0 | 8.0 | 0.00 | 0.15 | 0.00 | 85 | 1015.7 |
| 20260507143050 | 12 | 0 | 0.0 | 3.2 | 0.00 | 0.15 | 0.00 | 85 | 1015.7 |
| 20260507141553 | 12 | 0 | 0.0 | 4.8 | 0.00 | 0.15 | 0.00 | 87 | 1015.5 |
| 20260507140058 | 11 | 0 | 0.0 | 0.0 | 0.00 | 0.15 | 0.00 | 89 | 1015.5 |
| 20260507134545 | 11 | 0 | 0.0 | 6.4 | 0.00 | 0.20 | 0.00 | 92 | 1015.3 |
| 20260507133045 | 11 | 0 | 0.0 | 8.0 | 0.00 | 0.20 | 0.00 | 94 | 1015.3 |
| 20260507131548 | 11 | 0 | 0.0 | 3.2 | 0.00 | 0.20 | 0.00 | 95 | 1015.4 |
| 20260507124602 | 10 | 0 | 0.0 | 6.4 | 0.00 | 0.25 | 0.00 | 96 | 1015.3 |
| 20260507123048 | 10 | 0 | 0.0 | 0.0 | 0.00 | 0.25 | 0.00 | 97 | 1015.3 |
| 20260507121544 | 10 | 0 | 0.0 | 4.8 | 0.00 | 0.25 | 0.00 | 97 | 1015.2 |
| 20260507120046 | 10 | 0 | 0.0 | 0.0 | 0.00 | 0.25 | 0.00 | 97 | 1015.2 |
| 20260507114604 | 10 | 0 | 0.0 | 4.8 | 0.00 | 0.41 | 0.00 | 97 | 1015.0 |
| 20260507113052 | 10 | 0 | 0.0 | 0.0 | 0.00 | 0.41 | 0.00 | 97 | 1014.9 |
| 20260507111545 | 10 | 0 | 0.0 | 3.2 | 0.00 | 0.41 | 0.00 | 97 | 1014.5 |
| 20260507110046 | 10 | 0 | 0.0 | 1.6 | 0.00 | 0.41 | 0.00 | 97 | 1014.1 |
| 20260507104551 | 10 | 19 | 0.0 | 1.6 | 0.00 | 0.58 | 0.00 | 98 | 1013.9 |
| 20260507103044 | 10 | 0 | 0.0 | 0.0 | 0.00 | 0.58 | 0.00 | 98 | 1013.9 |
| 20260507101550 | 10 | 0 | 0.0 | 3.2 | 0.00 | 0.58 | 0.00 | 98 | 1014.0 |
| 20260507100048 | 11 | 0 | 0.0 | 0.0 | 0.00 | 0.58 | 0.00 | 99 | 1013.9 |
| 20260507094546 | 11 | 0 | 0.0 | 1.6 | 0.00 | 0.66 | 0.00 | 99 | 1014.0 |
| 20260507093047 | 11 | 0 | 0.0 | 0.0 | 0.00 | 0.66 | 0.00 | 99 | 1013.9 |
| 20260507091547 | 11 | 0 | 0.0 | 1.6 | 0.00 | 0.66 | 0.00 | 99 | 1014.1 |
| 20260507090047 | 11 | 0 | 0.0 | 1.6 | 0.00 | 0.66 | 0.00 | 99 | 1013.8 |
| 20260507084544 | 11 | 0 | 0.0 | 1.6 | 0.00 | 0.66 | 0.00 | 99 | 1013.9 |
| 20260507083044 | 11 | 0 | 0.0 | 4.8 | 0.00 | 0.66 | 0.00 | 99 | 1014.2 |
| 20260507081544 | 11 | 0 | 0.0 | 1.6 | 0.00 | 0.66 | 0.00 | 99 | 1014.3 |
| 20260507080045 | 11 | 0 | 0.0 | 0.0 | 0.00 | 0.66 | 0.00 | 99 | 1013.9 |
| 20260507074601 | 11 | 0 | 0.0 | 3.2 | 0.00 | 0.66 | 0.00 | 99 | 1013.8 |
| 20260507073048 | 11 | 0 | 0.0 | 1.6 | 0.00 | 0.66 | 0.00 | 99 | 1014.0 |
| 20260507071550 | 11 | 0 | 0.0 | 1.6 | 0.00 | 0.66 | 0.00 | 99 | 1014.2 |
| 20260507070105 | 11 | 0 | 0.0 | 0.0 | 0.00 | 0.66 | 0.00 | 99 | 1014.5 |
| 20260507064543 | 11 | 0 | 0.0 | 0.0 | 0.00 | 0.66 | 0.00 | 99 | 1014.2 |
| 20260507063058 | 11 | 0 | 0.0 | 4.8 | 0.00 | 0.66 | 0.00 | 99 | 1014.0 |
| 20260507061549 | 11 | 0 | 0.0 | 3.2 | 0.00 | 0.66 | 0.00 | 99 | 1014.5 |
| 20260507060049 | 11 | 0 | 0.0 | 1.6 | 0.00 | 0.66 | 0.00 | 99 | 1014.0 |
| 20260507054545 | 11 | 0 | 0.0 | 0.0 | 0.00 | 0.66 | 0.00 | 99 | 1014.6 |
| 20260507053049 | 11 | 0 | 0.0 | 0.0 | 0.00 | 0.66 | 0.00 | 99 | 1014.5 |
| 20260507051545 | 11 | 0 | 0.0 | 0.0 | 0.00 | 0.66 | 0.00 | 99 | 1015.5 |
| 20260507050054 | 11 | 0 | 0.0 | 0.0 | 0.00 | 0.66 | 0.00 | 99 | 1015.1 |
| 20260507044551 | 11 | 0 | 0.0 | 0.0 | 0.00 | 0.66 | 0.66 | 99 | 1015.3 |
| 20260507043047 | 11 | 0 | 0.0 | 0.0 | 0.03 | 0.66 | 0.66 | 99 | 1015.2 |
| 20260507041545 | 11 | 0 | 0.0 | 0.0 | 0.03 | 0.66 | 0.66 | 99 | 1015.1 |
| 20260507040048 | 11 | 0 | 0.0 | 0.0 | 0.03 | 0.66 | 0.66 | 99 | 1014.9 |
| 20260507034546 | 11 | 0 | 0.0 | 0.0 | 0.03 | 0.66 | 0.66 | 99 | 1015.1 |
| 20260507033048 | 11 | 0 | 0.0 | 0.0 | 0.00 | 0.64 | 0.64 | 99 | 1014.9 |
| 20260507031546 | 11 | 0 | 0.0 | 0.0 | 0.00 | 0.64 | 0.64 | 99 | 1014.4 |
| 20260507030116 | 12 | 0 | 0.0 | 1.6 | 0.00 | 0.64 | 0.64 | 99 | 1014.2 |
| 20260507024548 | 12 | 0 | 0.0 | 3.2 | 0.00 | 0.64 | 0.64 | 99 | 1014.5 |
| 20260507023046 | 12 | 0 | 0.0 | 0.0 | 0.00 | 0.64 | 0.64 | 99 | 1014.9 |
| 20260507021544 | 12 | 0 | 0.0 | 3.2 | 0.00 | 0.64 | 0.64 | 99 | 1015.0 |
| 20260507020047 | 12 | 0 | 0.0 | 4.8 | 0.00 | 0.64 | 0.64 | 99 | 1015.7 |
| 20260507014553 | 12 | 0 | 0.0 | 3.2 | 0.00 | 0.64 | 0.64 | 99 | 1014.7 |
| 20260507013051 | 12 | 336 | 0.0 | 1.6 | 0.00 | 0.64 | 0.64 | 99 | 1014.6 |
| 20260507011545 | 12 | 0 | 0.0 | 3.2 | 0.00 | 0.64 | 0.64 | 99 | 1013.5 |